sensor_id;sensor_type;location;lat;lon;timestamp;P1;durP1;ratioP1;P2;durP2;ratioP2
19788;SDS011;10054;59.332;18.244;2023-06-14T00:00:04;5.73;;;2.10;;
19788;SDS011;10054;59.332;18.244;2023-06-14T00:02:33;1.80;;;1.70;;
19788;SDS011;10054;59.332;18.244;2023-06-14T00:05:02;3.57;;;2.13;;
19788;SDS011;10054;59.332;18.244;2023-06-14T00:07:35;1.90;;;1.80;;
19788;SDS011;10054;59.332;18.244;2023-06-14T00:10:07;4.57;;;2.00;;
19788;SDS011;10054;59.332;18.244;2023-06-14T00:12:37;2.37;;;1.83;;
19788;SDS011;10054;59.332;18.244;2023-06-14T00:15:06;3.13;;;1.77;;
19788;SDS011;10054;59.332;18.244;2023-06-14T00:17:36;2.20;;;2.00;;
19788;SDS011;10054;59.332;18.244;2023-06-14T00:20:06;2.53;;;2.07;;
19788;SDS011;10054;59.332;18.244;2023-06-14T00:22:35;2.60;;;2.17;;
19788;SDS011;10054;59.332;18.244;2023-06-14T00:25:05;4.97;;;1.80;;
19788;SDS011;10054;59.332;18.244;2023-06-14T00:27:34;3.17;;;1.80;;
19788;SDS011;10054;59.332;18.244;2023-06-14T00:30:03;7.10;;;2.30;;
19788;SDS011;10054;59.332;18.244;2023-06-14T00:32:33;2.90;;;2.00;;
19788;SDS011;10054;59.332;18.244;2023-06-14T00:35:02;2.73;;;1.87;;
19788;SDS011;10054;59.332;18.244;2023-06-14T00:37:31;2.10;;;2.00;;
19788;SDS011;10054;59.332;18.244;2023-06-14T00:40:01;2.67;;;1.90;;
19788;SDS011;10054;59.332;18.244;2023-06-14T00:42:31;3.37;;;2.00;;
19788;SDS011;10054;59.332;18.244;2023-06-14T00:45:01;3.10;;;1.93;;
19788;SDS011;10054;59.332;18.244;2023-06-14T00:47:30;2.17;;;1.90;;
19788;SDS011;10054;59.332;18.244;2023-06-14T00:49:59;3.77;;;2.07;;
19788;SDS011;10054;59.332;18.244;2023-06-14T00:52:29;2.40;;;2.20;;
19788;SDS011;10054;59.332;18.244;2023-06-14T00:54:59;3.40;;;2.10;;
19788;SDS011;10054;59.332;18.244;2023-06-14T00:57:29;1.93;;;1.70;;
19788;SDS011;10054;59.332;18.244;2023-06-14T00:59:58;2.40;;;1.87;;
19788;SDS011;10054;59.332;18.244;2023-06-14T01:02:27;2.47;;;1.87;;
19788;SDS011;10054;59.332;18.244;2023-06-14T01:04:56;1.93;;;1.83;;
19788;SDS011;10054;59.332;18.244;2023-06-14T01:07:32;2.70;;;2.30;;
19788;SDS011;10054;59.332;18.244;2023-06-14T01:12:56;2.93;;;2.20;;
19788;SDS011;10054;59.332;18.244;2023-06-14T01:15:33;3.93;;;2.50;;
19788;SDS011;10054;59.332;18.244;2023-06-14T01:18:04;2.57;;;2.37;;
19788;SDS011;10054;59.332;18.244;2023-06-14T01:20:34;3.80;;;2.00;;
19788;SDS011;10054;59.332;18.244;2023-06-14T01:23:05;2.10;;;1.90;;
19788;SDS011;10054;59.332;18.244;2023-06-14T01:25:34;2.10;;;1.90;;
19788;SDS011;10054;59.332;18.244;2023-06-14T01:28:05;2.60;;;1.90;;
19788;SDS011;10054;59.332;18.244;2023-06-14T01:30:44;2.17;;;1.97;;
19788;SDS011;10054;59.332;18.244;2023-06-14T01:33:12;4.10;;;2.03;;
19788;SDS011;10054;59.332;18.244;2023-06-14T01:35:48;2.10;;;1.80;;
19788;SDS011;10054;59.332;18.244;2023-06-14T01:38:13;2.23;;;2.03;;
19788;SDS011;10054;59.332;18.244;2023-06-14T01:40:44;2.30;;;1.97;;
19788;SDS011;10054;59.332;18.244;2023-06-14T01:43:15;2.80;;;2.00;;
19788;SDS011;10054;59.332;18.244;2023-06-14T01:45:45;4.30;;;1.90;;
19788;SDS011;10054;59.332;18.244;2023-06-14T01:48:16;2.63;;;2.10;;
19788;SDS011;10054;59.332;18.244;2023-06-14T01:50:51;4.23;;;1.90;;
19788;SDS011;10054;59.332;18.244;2023-06-14T01:53:20;1.87;;;1.77;;
19788;SDS011;10054;59.332;18.244;2023-06-14T01:55:49;2.00;;;1.90;;
19788;SDS011;10054;59.332;18.244;2023-06-14T01:58:19;3.90;;;1.80;;
19788;SDS011;10054;59.332;18.244;2023-06-14T02:00:48;2.23;;;2.00;;
19788;SDS011;10054;59.332;18.244;2023-06-14T02:03:17;3.70;;;2.10;;
19788;SDS011;10054;59.332;18.244;2023-06-14T02:05:46;4.93;;;2.07;;
19788;SDS011;10054;59.332;18.244;2023-06-14T02:08:15;2.60;;;2.23;;
19788;SDS011;10054;59.332;18.244;2023-06-14T02:10:43;2.23;;;2.00;;
19788;SDS011;10054;59.332;18.244;2023-06-14T02:13:13;2.23;;;2.03;;
19788;SDS011;10054;59.332;18.244;2023-06-14T02:15:42;2.20;;;2.00;;
19788;SDS011;10054;59.332;18.244;2023-06-14T02:18:12;2.83;;;2.00;;
19788;SDS011;10054;59.332;18.244;2023-06-14T02:20:41;2.17;;;1.97;;
19788;SDS011;10054;59.332;18.244;2023-06-14T02:23:11;5.20;;;2.00;;
19788;SDS011;10054;59.332;18.244;2023-06-14T02:25:40;3.10;;;2.27;;
19788;SDS011;10054;59.332;18.244;2023-06-14T02:28:10;5.73;;;2.30;;
19788;SDS011;10054;59.332;18.244;2023-06-14T02:30:39;4.97;;;2.07;;
19788;SDS011;10054;59.332;18.244;2023-06-14T02:33:08;3.90;;;2.00;;
19788;SDS011;10054;59.332;18.244;2023-06-14T02:35:39;3.13;;;2.07;;
19788;SDS011;10054;59.332;18.244;2023-06-14T02:38:09;5.07;;;2.10;;
19788;SDS011;10054;59.332;18.244;2023-06-14T02:40:38;3.83;;;2.10;;
19788;SDS011;10054;59.332;18.244;2023-06-14T02:43:08;2.00;;;1.90;;
19788;SDS011;10054;59.332;18.244;2023-06-14T02:45:38;2.67;;;1.90;;
19788;SDS011;10054;59.332;18.244;2023-06-14T02:48:07;2.20;;;2.00;;
19788;SDS011;10054;59.332;18.244;2023-06-14T02:50:36;4.30;;;2.23;;
19788;SDS011;10054;59.332;18.244;2023-06-14T02:53:05;2.93;;;2.10;;
19788;SDS011;10054;59.332;18.244;2023-06-14T02:55:35;2.53;;;1.90;;
19788;SDS011;10054;59.332;18.244;2023-06-14T02:58:06;3.30;;;2.30;;
19788;SDS011;10054;59.332;18.244;2023-06-14T03:00:35;2.40;;;2.20;;
19788;SDS011;10054;59.332;18.244;2023-06-14T03:03:05;2.33;;;2.10;;
19788;SDS011;10054;59.332;18.244;2023-06-14T03:05:35;2.83;;;1.90;;
19788;SDS011;10054;59.332;18.244;2023-06-14T03:08:06;4.40;;;2.00;;
19788;SDS011;10054;59.332;18.244;2023-06-14T03:10:35;6.20;;;2.30;;
19788;SDS011;10054;59.332;18.244;2023-06-14T03:13:06;3.57;;;2.20;;
19788;SDS011;10054;59.332;18.244;2023-06-14T03:15:35;4.30;;;2.43;;
19788;SDS011;10054;59.332;18.244;2023-06-14T03:18:05;4.53;;;2.50;;
19788;SDS011;10054;59.332;18.244;2023-06-14T03:20:35;5.33;;;2.40;;
19788;SDS011;10054;59.332;18.244;2023-06-14T03:23:05;4.83;;;2.40;;
19788;SDS011;10054;59.332;18.244;2023-06-14T03:25:35;3.77;;;2.63;;
19788;SDS011;10054;59.332;18.244;2023-06-14T03:28:05;2.70;;;2.50;;
19788;SDS011;10054;59.332;18.244;2023-06-14T03:30:34;2.60;;;2.30;;
19788;SDS011;10054;59.332;18.244;2023-06-14T03:33:03;3.77;;;2.57;;
19788;SDS011;10054;59.332;18.244;2023-06-14T03:35:34;3.70;;;2.50;;
19788;SDS011;10054;59.332;18.244;2023-06-14T03:38:03;5.27;;;2.73;;
19788;SDS011;10054;59.332;18.244;2023-06-14T03:40:32;5.57;;;2.50;;
19788;SDS011;10054;59.332;18.244;2023-06-14T03:43:02;7.20;;;2.13;;
19788;SDS011;10054;59.332;18.244;2023-06-14T03:45:31;2.83;;;2.30;;
19788;SDS011;10054;59.332;18.244;2023-06-14T03:48:00;2.67;;;2.30;;
19788;SDS011;10054;59.332;18.244;2023-06-14T03:50:30;3.80;;;2.40;;
19788;SDS011;10054;59.332;18.244;2023-06-14T03:53:00;2.87;;;2.47;;
19788;SDS011;10054;59.332;18.244;2023-06-14T03:55:30;3.77;;;2.70;;
19788;SDS011;10054;59.332;18.244;2023-06-14T03:58:00;5.37;;;2.40;;
19788;SDS011;10054;59.332;18.244;2023-06-14T04:00:29;3.00;;;2.40;;
19788;SDS011;10054;59.332;18.244;2023-06-14T04:02:58;4.90;;;2.53;;
19788;SDS011;10054;59.332;18.244;2023-06-14T04:05:27;3.43;;;2.50;;
19788;SDS011;10054;59.332;18.244;2023-06-14T04:07:58;6.50;;;2.47;;
19788;SDS011;10054;59.332;18.244;2023-06-14T04:10:29;3.73;;;2.40;;
19788;SDS011;10054;59.332;18.244;2023-06-14T04:12:58;4.50;;;2.30;;
19788;SDS011;10054;59.332;18.244;2023-06-14T04:15:26;2.77;;;2.20;;
19788;SDS011;10054;59.332;18.244;2023-06-14T04:17:56;3.98;;;2.47;;
19788;SDS011;10054;59.332;18.244;2023-06-14T04:20:25;3.83;;;2.33;;
19788;SDS011;10054;59.332;18.244;2023-06-14T04:22:56;4.50;;;2.73;;
19788;SDS011;10054;59.332;18.244;2023-06-14T04:25:25;3.62;;;2.50;;
19788;SDS011;10054;59.332;18.244;2023-06-14T04:27:55;3.60;;;2.60;;
19788;SDS011;10054;59.332;18.244;2023-06-14T04:30:24;4.00;;;2.50;;
19788;SDS011;10054;59.332;18.244;2023-06-14T04:32:54;4.62;;;2.75;;
19788;SDS011;10054;59.332;18.244;2023-06-14T04:35:24;2.30;;;2.12;;
19788;SDS011;10054;59.332;18.244;2023-06-14T04:37:55;4.10;;;2.35;;
19788;SDS011;10054;59.332;18.244;2023-06-14T04:40:24;2.60;;;2.40;;
19788;SDS011;10054;59.332;18.244;2023-06-14T04:42:53;4.08;;;2.58;;
19788;SDS011;10054;59.332;18.244;2023-06-14T04:45:22;4.20;;;2.45;;
19788;SDS011;10054;59.332;18.244;2023-06-14T04:47:51;3.30;;;2.10;;
19788;SDS011;10054;59.332;18.244;2023-06-14T04:50:21;2.22;;;2.10;;
19788;SDS011;10054;59.332;18.244;2023-06-14T04:52:52;4.33;;;2.40;;
19788;SDS011;10054;59.332;18.244;2023-06-14T04:55:22;2.60;;;2.40;;
19788;SDS011;10054;59.332;18.244;2023-06-14T04:57:51;3.70;;;2.62;;
19788;SDS011;10054;59.332;18.244;2023-06-14T05:00:21;4.00;;;2.42;;
19788;SDS011;10054;59.332;18.244;2023-06-14T05:02:50;4.17;;;3.00;;
19788;SDS011;10054;59.332;18.244;2023-06-14T05:05:20;5.40;;;2.90;;
19788;SDS011;10054;59.332;18.244;2023-06-14T05:07:49;4.95;;;2.67;;
19788;SDS011;10054;59.332;18.244;2023-06-14T05:10:18;5.22;;;2.80;;
19788;SDS011;10054;59.332;18.244;2023-06-14T05:12:47;3.52;;;2.50;;
19788;SDS011;10054;59.332;18.244;2023-06-14T05:15:18;4.67;;;2.50;;
19788;SDS011;10054;59.332;18.244;2023-06-14T05:17:47;3.45;;;2.47;;
19788;SDS011;10054;59.332;18.244;2023-06-14T05:20:17;3.50;;;2.35;;
19788;SDS011;10054;59.332;18.244;2023-06-14T05:22:46;3.87;;;2.62;;
19788;SDS011;10054;59.332;18.244;2023-06-14T05:25:16;4.47;;;2.55;;
19788;SDS011;10054;59.332;18.244;2023-06-14T05:27:46;5.97;;;2.80;;
19788;SDS011;10054;59.332;18.244;2023-06-14T05:30:15;2.35;;;2.15;;
19788;SDS011;10054;59.332;18.244;2023-06-14T05:32:44;4.75;;;2.25;;
19788;SDS011;10054;59.332;18.244;2023-06-14T05:35:13;6.25;;;2.27;;
19788;SDS011;10054;59.332;18.244;2023-06-14T05:37:42;6.25;;;2.45;;
19788;SDS011;10054;59.332;18.244;2023-06-14T05:40:11;5.58;;;2.47;;
19788;SDS011;10054;59.332;18.244;2023-06-14T05:42:40;5.30;;;2.40;;
19788;SDS011;10054;59.332;18.244;2023-06-14T05:45:09;5.03;;;2.22;;
19788;SDS011;10054;59.332;18.244;2023-06-14T05:47:38;5.37;;;2.37;;
19788;SDS011;10054;59.332;18.244;2023-06-14T05:50:07;9.58;;;2.60;;
19788;SDS011;10054;59.332;18.244;2023-06-14T05:52:36;7.50;;;2.70;;
19788;SDS011;10054;59.332;18.244;2023-06-14T05:55:05;5.62;;;2.62;;
19788;SDS011;10054;59.332;18.244;2023-06-14T05:57:34;7.72;;;2.60;;
19788;SDS011;10054;59.332;18.244;2023-06-14T06:00:04;3.40;;;2.52;;
19788;SDS011;10054;59.332;18.244;2023-06-14T06:02:37;4.97;;;2.50;;
19788;SDS011;10054;59.332;18.244;2023-06-14T06:05:06;5.03;;;2.83;;
19788;SDS011;10054;59.332;18.244;2023-06-14T06:07:35;8.70;;;2.98;;
19788;SDS011;10054;59.332;18.244;2023-06-14T06:10:06;3.60;;;2.30;;
19788;SDS011;10054;59.332;18.244;2023-06-14T06:12:35;2.70;;;2.50;;
19788;SDS011;10054;59.332;18.244;2023-06-14T06:15:05;5.15;;;2.40;;
19788;SDS011;10054;59.332;18.244;2023-06-14T06:17:34;4.35;;;2.62;;
19788;SDS011;10054;59.332;18.244;2023-06-14T06:20:03;4.95;;;2.55;;
19788;SDS011;10054;59.332;18.244;2023-06-14T06:22:34;11.40;;;2.70;;
19788;SDS011;10054;59.332;18.244;2023-06-14T06:25:03;6.70;;;2.52;;
19788;SDS011;10054;59.332;18.244;2023-06-14T06:27:33;6.72;;;2.55;;
19788;SDS011;10054;59.332;18.244;2023-06-14T06:30:03;8.25;;;2.70;;
19788;SDS011;10054;59.332;18.244;2023-06-14T06:32:34;3.15;;;2.40;;
19788;SDS011;10054;59.332;18.244;2023-06-14T06:35:03;2.65;;;2.45;;
19788;SDS011;10054;59.332;18.244;2023-06-14T06:37:33;7.03;;;2.47;;
19788;SDS011;10054;59.332;18.244;2023-06-14T06:40:03;2.80;;;2.42;;
19788;SDS011;10054;59.332;18.244;2023-06-14T06:42:32;4.75;;;2.35;;
19788;SDS011;10054;59.332;18.244;2023-06-14T06:45:03;4.35;;;2.40;;
19788;SDS011;10054;59.332;18.244;2023-06-14T06:47:32;5.37;;;2.85;;
19788;SDS011;10054;59.332;18.244;2023-06-14T06:50:01;2.95;;;2.65;;
19788;SDS011;10054;59.332;18.244;2023-06-14T06:52:30;4.28;;;2.55;;
19788;SDS011;10054;59.332;18.244;2023-06-14T06:54:59;3.80;;;2.58;;
19788;SDS011;10054;59.332;18.244;2023-06-14T06:57:28;7.53;;;2.58;;
19788;SDS011;10054;59.332;18.244;2023-06-14T06:59:57;4.58;;;2.45;;
19788;SDS011;10054;59.332;18.244;2023-06-14T07:02:26;6.30;;;2.72;;
19788;SDS011;10054;59.332;18.244;2023-06-14T07:04:56;5.55;;;2.62;;
19788;SDS011;10054;59.332;18.244;2023-06-14T07:07:25;12.18;;;3.10;;
19788;SDS011;10054;59.332;18.244;2023-06-14T07:09:54;7.33;;;2.90;;
19788;SDS011;10054;59.332;18.244;2023-06-14T07:12:24;4.08;;;2.50;;
19788;SDS011;10054;59.332;18.244;2023-06-14T07:14:52;4.75;;;2.80;;
19788;SDS011;10054;59.332;18.244;2023-06-14T07:17:21;6.35;;;3.75;;
19788;SDS011;10054;59.332;18.244;2023-06-14T07:19:50;4.67;;;3.62;;
19788;SDS011;10054;59.332;18.244;2023-06-14T07:22:19;7.15;;;2.90;;
19788;SDS011;10054;59.332;18.244;2023-06-14T07:24:48;3.75;;;2.77;;
19788;SDS011;10054;59.332;18.244;2023-06-14T07:27:17;4.42;;;2.67;;
19788;SDS011;10054;59.332;18.244;2023-06-14T07:29:46;5.65;;;2.75;;
19788;SDS011;10054;59.332;18.244;2023-06-14T07:32:15;3.58;;;2.45;;
19788;SDS011;10054;59.332;18.244;2023-06-14T07:34:44;3.87;;;2.60;;
19788;SDS011;10054;59.332;18.244;2023-06-14T07:37:13;6.90;;;2.90;;
19788;SDS011;10054;59.332;18.244;2023-06-14T07:39:41;3.75;;;2.70;;
19788;SDS011;10054;59.332;18.244;2023-06-14T07:42:10;6.45;;;2.60;;
19788;SDS011;10054;59.332;18.244;2023-06-14T07:44:39;2.77;;;2.45;;
19788;SDS011;10054;59.332;18.244;2023-06-14T07:47:08;4.58;;;2.52;;
19788;SDS011;10054;59.332;18.244;2023-06-14T07:49:37;7.20;;;3.05;;
19788;SDS011;10054;59.332;18.244;2023-06-14T07:52:06;4.35;;;2.50;;
19788;SDS011;10054;59.332;18.244;2023-06-14T07:54:36;4.55;;;2.87;;
19788;SDS011;10054;59.332;18.244;2023-06-14T07:57:05;4.62;;;2.47;;
19788;SDS011;10054;59.332;18.244;2023-06-14T07:59:34;3.22;;;2.75;;
19788;SDS011;10054;59.332;18.244;2023-06-14T08:02:03;3.22;;;2.85;;
19788;SDS011;10054;59.332;18.244;2023-06-14T08:04:32;4.08;;;2.58;;
19788;SDS011;10054;59.332;18.244;2023-06-14T08:07:01;3.12;;;2.80;;
19788;SDS011;10054;59.332;18.244;2023-06-14T08:09:31;4.42;;;2.58;;
19788;SDS011;10054;59.332;18.244;2023-06-14T08:12:00;4.37;;;2.60;;
19788;SDS011;10054;59.332;18.244;2023-06-14T08:14:28;5.10;;;2.65;;
19788;SDS011;10054;59.332;18.244;2023-06-14T08:16:58;3.42;;;3.12;;
19788;SDS011;10054;59.332;18.244;2023-06-14T08:19:27;3.80;;;2.83;;
19788;SDS011;10054;59.332;18.244;2023-06-14T08:21:56;4.20;;;2.72;;
19788;SDS011;10054;59.332;18.244;2023-06-14T08:24:25;4.60;;;3.10;;
19788;SDS011;10054;59.332;18.244;2023-06-14T08:26:54;5.08;;;2.90;;
19788;SDS011;10054;59.332;18.244;2023-06-14T08:29:24;3.42;;;2.83;;
19788;SDS011;10054;59.332;18.244;2023-06-14T08:31:55;4.47;;;2.75;;
19788;SDS011;10054;59.332;18.244;2023-06-14T08:34:24;4.80;;;2.85;;
19788;SDS011;10054;59.332;18.244;2023-06-14T08:36:53;3.90;;;3.17;;
19788;SDS011;10054;59.332;18.244;2023-06-14T08:39:22;7.40;;;3.00;;
19788;SDS011;10054;59.332;18.244;2023-06-14T08:41:51;5.60;;;2.80;;
19788;SDS011;10054;59.332;18.244;2023-06-14T08:44:22;5.42;;;3.20;;
19788;SDS011;10054;59.332;18.244;2023-06-14T08:46:51;3.12;;;2.83;;
19788;SDS011;10054;59.332;18.244;2023-06-14T08:49:22;3.30;;;3.00;;
19788;SDS011;10054;59.332;18.244;2023-06-14T08:51:54;5.87;;;2.98;;
19788;SDS011;10054;59.332;18.244;2023-06-14T08:54:31;6.53;;;3.30;;
19788;SDS011;10054;59.332;18.244;2023-06-14T08:56:57;4.03;;;2.90;;
19788;SDS011;10054;59.332;18.244;2023-06-14T08:59:27;3.58;;;3.27;;
19788;SDS011;10054;59.332;18.244;2023-06-14T09:01:59;5.67;;;3.75;;
19788;SDS011;10054;59.332;18.244;2023-06-14T09:04:27;4.85;;;3.85;;
19788;SDS011;10054;59.332;18.244;2023-06-14T09:06:56;5.08;;;3.12;;
19788;SDS011;10054;59.332;18.244;2023-06-14T09:09:25;3.37;;;3.08;;
19788;SDS011;10054;59.332;18.244;2023-06-14T09:11:54;3.33;;;3.10;;
19788;SDS011;10054;59.332;18.244;2023-06-14T09:14:24;3.08;;;2.80;;
19788;SDS011;10054;59.332;18.244;2023-06-14T09:16:53;3.80;;;3.00;;
19788;SDS011;10054;59.332;18.244;2023-06-14T09:19:25;3.85;;;3.50;;
19788;SDS011;10054;59.332;18.244;2023-06-14T09:21:54;3.92;;;3.05;;
19788;SDS011;10054;59.332;18.244;2023-06-14T09:24:28;3.37;;;3.08;;
19788;SDS011;10054;59.332;18.244;2023-06-14T09:26:53;3.30;;;3.08;;
19788;SDS011;10054;59.332;18.244;2023-06-14T09:29:21;3.55;;;3.05;;
19788;SDS011;10054;59.332;18.244;2023-06-14T09:31:50;3.87;;;3.10;;
19788;SDS011;10054;59.332;18.244;2023-06-14T09:34:19;3.55;;;3.25;;
19788;SDS011;10054;59.332;18.244;2023-06-14T09:36:49;3.40;;;3.10;;
19788;SDS011;10054;59.332;18.244;2023-06-14T09:39:19;4.08;;;3.10;;
19788;SDS011;10054;59.332;18.244;2023-06-14T09:41:48;3.20;;;2.90;;
19788;SDS011;10054;59.332;18.244;2023-06-14T09:44:17;3.77;;;3.47;;
19788;SDS011;10054;59.332;18.244;2023-06-14T09:46:47;3.95;;;3.40;;
19788;SDS011;10054;59.332;18.244;2023-06-14T09:49:17;5.65;;;3.62;;
19788;SDS011;10054;59.332;18.244;2023-06-14T09:51:46;3.77;;;3.47;;
19788;SDS011;10054;59.332;18.244;2023-06-14T09:54:20;6.83;;;3.60;;
19788;SDS011;10054;59.332;18.244;2023-06-14T09:56:49;3.70;;;3.30;;
19788;SDS011;10054;59.332;18.244;2023-06-14T09:59:21;3.90;;;3.60;;
19788;SDS011;10054;59.332;18.244;2023-06-14T10:01:53;3.80;;;3.50;;
19788;SDS011;10054;59.332;18.244;2023-06-14T10:04:26;5.10;;;3.55;;
19788;SDS011;10054;59.332;18.244;2023-06-14T10:06:58;3.98;;;3.58;;
19788;SDS011;10054;59.332;18.244;2023-06-14T10:09:29;3.75;;;3.45;;
19788;SDS011;10054;59.332;18.244;2023-06-14T10:11:59;9.45;;;3.50;;
19788;SDS011;10054;59.332;18.244;2023-06-14T10:14:29;4.10;;;3.05;;
19788;SDS011;10054;59.332;18.244;2023-06-14T10:17:11;5.35;;;3.30;;
19788;SDS011;10054;59.332;18.244;2023-06-14T10:19:48;4.78;;;3.27;;
19788;SDS011;10054;59.332;18.244;2023-06-14T10:22:30;12.50;;;3.67;;
19788;SDS011;10054;59.332;18.244;2023-06-14T10:25:12;10.58;;;3.40;;
19788;SDS011;10054;59.332;18.244;2023-06-14T10:27:45;9.65;;;3.37;;
19788;SDS011;10054;59.332;18.244;2023-06-14T10:30:14;10.10;;;3.42;;
19788;SDS011;10054;59.332;18.244;2023-06-14T10:35:37;6.12;;;3.37;;
19788;SDS011;10054;59.332;18.244;2023-06-14T10:38:09;6.70;;;3.37;;
19788;SDS011;10054;59.332;18.244;2023-06-14T10:40:40;3.37;;;3.17;;
19788;SDS011;10054;59.332;18.244;2023-06-14T10:43:22;3.95;;;3.65;;
19788;SDS011;10054;59.332;18.244;2023-06-14T10:48:47;3.98;;;3.22;;
19788;SDS011;10054;59.332;18.244;2023-06-14T10:51:16;4.90;;;3.33;;
19788;SDS011;10054;59.332;18.244;2023-06-14T10:53:48;3.35;;;3.08;;
19788;SDS011;10054;59.332;18.244;2023-06-14T10:56:32;5.10;;;3.90;;
19788;SDS011;10054;59.332;18.244;2023-06-14T10:58:58;3.60;;;3.30;;
19788;SDS011;10054;59.332;18.244;2023-06-14T11:04:07;3.30;;;3.10;;
19788;SDS011;10054;59.332;18.244;2023-06-14T11:09:20;7.92;;;3.62;;
19788;SDS011;10054;59.332;18.244;2023-06-14T11:11:49;3.77;;;3.35;;
19788;SDS011;10054;59.332;18.244;2023-06-14T11:14:22;5.10;;;3.92;;
19788;SDS011;10054;59.332;18.244;2023-06-14T11:16:51;3.95;;;3.33;;
19788;SDS011;10054;59.332;18.244;2023-06-14T11:19:21;3.90;;;3.20;;
19788;SDS011;10054;59.332;18.244;2023-06-14T11:21:50;6.00;;;3.50;;
19788;SDS011;10054;59.332;18.244;2023-06-14T11:24:19;3.70;;;3.30;;
19788;SDS011;10054;59.332;18.244;2023-06-14T11:26:48;4.25;;;3.33;;
19788;SDS011;10054;59.332;18.244;2023-06-14T11:29:17;5.83;;;3.55;;
19788;SDS011;10054;59.332;18.244;2023-06-14T11:31:48;3.77;;;3.47;;
19788;SDS011;10054;59.332;18.244;2023-06-14T11:34:18;3.52;;;3.17;;
19788;SDS011;10054;59.332;18.244;2023-06-14T11:36:48;16.37;;;3.10;;
19788;SDS011;10054;59.332;18.244;2023-06-14T11:39:17;4.47;;;3.20;;
19788;SDS011;10054;59.332;18.244;2023-06-14T11:41:49;3.85;;;3.55;;
19788;SDS011;10054;59.332;18.244;2023-06-14T11:44:18;4.33;;;3.00;;
19788;SDS011;10054;59.332;18.244;2023-06-14T11:46:47;3.37;;;2.77;;
19788;SDS011;10054;59.332;18.244;2023-06-14T11:49:17;4.97;;;3.00;;
19788;SDS011;10054;59.332;18.244;2023-06-14T11:51:46;4.50;;;3.10;;
19788;SDS011;10054;59.332;18.244;2023-06-14T11:54:15;4.22;;;3.05;;
19788;SDS011;10054;59.332;18.244;2023-06-14T11:56:43;3.75;;;3.10;;
19788;SDS011;10054;59.332;18.244;2023-06-14T11:59:13;6.95;;;3.58;;
19788;SDS011;10054;59.332;18.244;2023-06-14T12:01:42;4.90;;;3.12;;
19788;SDS011;10054;59.332;18.244;2023-06-14T12:04:12;3.58;;;3.10;;
19788;SDS011;10054;59.332;18.244;2023-06-14T12:06:41;8.00;;;3.52;;
19788;SDS011;10054;59.332;18.244;2023-06-14T12:09:10;3.45;;;2.95;;
19788;SDS011;10054;59.332;18.244;2023-06-14T12:11:40;5.62;;;3.40;;
19788;SDS011;10054;59.332;18.244;2023-06-14T12:14:09;3.65;;;3.35;;
19788;SDS011;10054;59.332;18.244;2023-06-14T12:16:38;4.33;;;3.12;;
19788;SDS011;10054;59.332;18.244;2023-06-14T12:19:11;7.92;;;3.37;;
19788;SDS011;10054;59.332;18.244;2023-06-14T12:21:40;3.62;;;3.33;;
19788;SDS011;10054;59.332;18.244;2023-06-14T12:24:11;3.55;;;3.25;;
19788;SDS011;10054;59.332;18.244;2023-06-14T12:26:41;3.65;;;3.27;;
19788;SDS011;10054;59.332;18.244;2023-06-14T12:29:10;7.65;;;3.55;;
19788;SDS011;10054;59.332;18.244;2023-06-14T12:31:39;5.28;;;3.60;;
19788;SDS011;10054;59.332;18.244;2023-06-14T12:34:08;8.08;;;3.58;;
19788;SDS011;10054;59.332;18.244;2023-06-14T12:36:37;5.45;;;3.52;;
19788;SDS011;10054;59.332;18.244;2023-06-14T12:39:08;4.20;;;3.60;;
19788;SDS011;10054;59.332;18.244;2023-06-14T12:41:37;3.72;;;3.42;;
19788;SDS011;10054;59.332;18.244;2023-06-14T12:44:07;3.85;;;3.58;;
19788;SDS011;10054;59.332;18.244;2023-06-14T12:46:36;3.50;;;3.30;;
19788;SDS011;10054;59.332;18.244;2023-06-14T12:49:08;4.55;;;3.70;;
19788;SDS011;10054;59.332;18.244;2023-06-14T12:51:39;3.50;;;3.20;;
19788;SDS011;10054;59.332;18.244;2023-06-14T12:54:08;4.90;;;3.37;;
19788;SDS011;10054;59.332;18.244;2023-06-14T12:56:37;7.17;;;4.17;;
19788;SDS011;10054;59.332;18.244;2023-06-14T12:59:06;5.83;;;3.80;;
19788;SDS011;10054;59.332;18.244;2023-06-14T13:01:34;3.35;;;3.05;;
19788;SDS011;10054;59.332;18.244;2023-06-14T13:04:04;6.72;;;3.62;;
19788;SDS011;10054;59.332;18.244;2023-06-14T13:06:33;4.03;;;3.70;;
19788;SDS011;10054;59.332;18.244;2023-06-14T13:09:02;7.80;;;3.42;;
19788;SDS011;10054;59.332;18.244;2023-06-14T13:11:31;4.22;;;3.42;;
19788;SDS011;10054;59.332;18.244;2023-06-14T13:14:00;3.87;;;3.58;;
19788;SDS011;10054;59.332;18.244;2023-06-14T13:16:29;6.00;;;3.77;;
19788;SDS011;10054;59.332;18.244;2023-06-14T13:18:58;4.15;;;3.75;;
19788;SDS011;10054;59.332;18.244;2023-06-14T13:21:27;5.78;;;3.45;;
19788;SDS011;10054;59.332;18.244;2023-06-14T13:23:56;4.17;;;3.70;;
19788;SDS011;10054;59.332;18.244;2023-06-14T13:26:24;4.60;;;3.25;;
19788;SDS011;10054;59.332;18.244;2023-06-14T13:28:53;8.00;;;3.65;;
19788;SDS011;10054;59.332;18.244;2023-06-14T13:31:22;18.60;;;4.03;;
19788;SDS011;10054;59.332;18.244;2023-06-14T13:33:52;7.35;;;3.87;;
19788;SDS011;10054;59.332;18.244;2023-06-14T13:36:21;4.92;;;3.62;;
19788;SDS011;10054;59.332;18.244;2023-06-14T13:38:50;5.22;;;3.65;;
19788;SDS011;10054;59.332;18.244;2023-06-14T13:41:21;4.95;;;3.70;;
19788;SDS011;10054;59.332;18.244;2023-06-14T13:43:49;3.62;;;3.12;;
19788;SDS011;10054;59.332;18.244;2023-06-14T13:46:18;3.83;;;3.47;;
19788;SDS011;10054;59.332;18.244;2023-06-14T13:48:47;4.37;;;3.65;;
19788;SDS011;10054;59.332;18.244;2023-06-14T13:51:16;7.00;;;3.55;;
19788;SDS011;10054;59.332;18.244;2023-06-14T13:53:52;3.70;;;3.40;;
19788;SDS011;10054;59.332;18.244;2023-06-14T13:56:18;4.92;;;3.37;;
19788;SDS011;10054;59.332;18.244;2023-06-14T13:58:48;8.28;;;3.87;;
19788;SDS011;10054;59.332;18.244;2023-06-14T14:01:18;3.67;;;3.37;;
19788;SDS011;10054;59.332;18.244;2023-06-14T14:03:47;4.83;;;3.62;;
19788;SDS011;10054;59.332;18.244;2023-06-14T14:06:16;4.12;;;3.42;;
19788;SDS011;10054;59.332;18.244;2023-06-14T14:08:45;3.92;;;3.25;;
19788;SDS011;10054;59.332;18.244;2023-06-14T14:11:14;3.80;;;3.35;;
19788;SDS011;10054;59.332;18.244;2023-06-14T14:13:43;4.58;;;3.55;;
19788;SDS011;10054;59.332;18.244;2023-06-14T14:16:12;5.17;;;3.55;;
19788;SDS011;10054;59.332;18.244;2023-06-14T14:18:42;4.95;;;3.60;;
19788;SDS011;10054;59.332;18.244;2023-06-14T14:21:11;3.37;;;3.17;;
19788;SDS011;10054;59.332;18.244;2023-06-14T14:23:40;3.72;;;3.30;;
19788;SDS011;10054;59.332;18.244;2023-06-14T14:26:09;5.42;;;3.37;;
19788;SDS011;10054;59.332;18.244;2023-06-14T14:28:37;3.70;;;3.30;;
19788;SDS011;10054;59.332;18.244;2023-06-14T14:31:06;3.87;;;3.30;;
19788;SDS011;10054;59.332;18.244;2023-06-14T14:33:35;3.62;;;3.33;;
19788;SDS011;10054;59.332;18.244;2023-06-14T14:36:04;5.22;;;3.27;;
19788;SDS011;10054;59.332;18.244;2023-06-14T14:38:34;3.02;;;2.77;;
19788;SDS011;10054;59.332;18.244;2023-06-14T14:41:03;3.47;;;3.17;;
19788;SDS011;10054;59.332;18.244;2023-06-14T14:43:32;4.22;;;3.17;;
19788;SDS011;10054;59.332;18.244;2023-06-14T14:46:01;5.03;;;3.30;;
19788;SDS011;10054;59.332;18.244;2023-06-14T14:48:30;3.40;;;3.20;;
19788;SDS011;10054;59.332;18.244;2023-06-14T14:50:59;4.33;;;3.30;;
19788;SDS011;10054;59.332;18.244;2023-06-14T14:53:29;3.77;;;3.47;;
19788;SDS011;10054;59.332;18.244;2023-06-14T14:55:58;3.50;;;3.00;;
19788;SDS011;10054;59.332;18.244;2023-06-14T14:58:27;3.83;;;3.20;;
19788;SDS011;10054;59.332;18.244;2023-06-14T15:00:56;4.85;;;3.35;;